^^
Datos históricos de la estación: Murcia-Puente Tocinos
Diario Informe para Agosto 09, 2020 Unidades:  Ingés    Métrico   Ambas
Diario Semanal Mensual Anual
  Máxima: Mínima: Promedio:
Temperatura: 97 °F 74.5 °F 84.6 °F
Punto de rocio: 70.9 °F 54.1 °F 61.2 °F
Humedad: 75.9% 24.5% 49%
Velocidad viento: 13mph 0mph 5.3mph
Racha viento: 26.5mph - -
Viento- - Este
Presión: 30 in 29.8 in -
Precipitación: 0 in    
 
 
Tabla de datos para Agosto 09, 2020
Hora Temperatura Punto de rocio Presión Viento Velocidad viento Racha viento Humedad Intensidad lluvia(por hora) Nubes
00:04 78.3 °F 67.5 °F 30 in NO 3 mph 5 mph 69.5% 0 in
00:09 78.3 °F 67.6 °F 30 in NO 2.9 mph 5 mph 70% 0 in
00:14 78.3 °F 68 °F 30 in NO 2.9 mph 5 mph 70.7% 0 in
00:19 78.3 °F 68.2 °F 30 in ONO 2.9 mph 2.4 mph 71% 0 in
00:24 78.3 °F 68.4 °F 30 in ONO 2.6 mph 2.9 mph 71.8% 0 in
00:29 78.3 °F 68.5 °F 30 in NO 1.4 mph 3.1 mph 72% 0 in
00:34 78.3 °F 68.5 °F 30 in NO 1.1 mph 3 mph 72% 0 in
00:39 78.3 °F 68.5 °F 30 in Calm   3 mph 72% 0 in
00:44 78.3 °F 68.5 °F 30 in OSO 0.3 mph 4.6 mph 72% 0 in
00:49 78.3 °F 68.5 °F 30 in OSO 1.4 mph 5 mph 72% 0 in
00:54 78.4 °F 68.7 °F 30 in SO 1.4 mph 5 mph 72% 0 in
00:59 78.4 °F 68.7 °F 30 in OSO 1.4 mph 3.6 mph 72% 0 in
01:04 78.3 °F 68.4 °F 30 in NNE 1.5 mph 4 mph 71.4% 0 in
01:09 78.3 °F 68 °F 30 in ENE 1.8 mph 4.7 mph 71% 0 in
01:14 77.9 °F 67.8 °F 30 in Este 2.1 mph 5.2 mph 71% 0 in
01:19 77.7 °F 67.8 °F 30 in Este 3.1 mph 5.2 mph 71.4% 0 in
01:24 77.5 °F 67.8 °F 30 in ENE 2.9 mph 5 mph 72% 0 in
01:29 77.5 °F 67.8 °F 30 in Este 2.4 mph 4 mph 72% 0 in
01:34 77.4 °F 67.5 °F 30 in Este 2.3 mph 4 mph 71.6% 0 in
01:39 77.4 °F 66.4 °F 30 in Este 2 mph 3 mph 69.2% 0 in
01:44 77 °F 64.6 °F 30 in Este 1.6 mph 2.3 mph 65.6% 0 in
01:49 76.8 °F 63.9 °F 30 in Calm   2.4 mph 64.3% 0 in
01:54 77.2 °F 66.4 °F 30 in North 0.3 mph 3.5 mph 69.7% 0 in
01:59 77.4 °F 67.5 °F 30 in NNO 1.4 mph 3.6 mph 71.5% 0 in
02:04 77.5 °F 67.6 °F 30 in NO 1.6 mph 5.2 mph 71.6% 0 in
02:09 77.2 °F 67.1 °F 30 in NNO 2.4 mph 5 mph 71.3% 0 in
02:14 76.8 °F 66.2 °F 30 in NNE 2.4 mph 5.2 mph 69.8% 0 in
02:19 76.5 °F 64.4 °F 30 in NNE 2.4 mph 5 mph 66.8% 0 in
02:24 75.9 °F 63.9 °F 30 in NNE 2.3 mph 5 mph 66.2% 0 in
02:29 75.9 °F 64.2 °F 30 in NNE 2 mph 3 mph 67% 0 in
02:34 75.9 °F 63.7 °F 30 in ENE 2 mph 4.6 mph 65.9% 0 in
02:39 75.9 °F 63.5 °F 30 in ESE 1.8 mph 5 mph 65.2% 0 in
02:44 75.9 °F 60.8 °F 30 in ESE 1.9 mph 5 mph 59.5% 0 in
02:49 76.1 °F 59.4 °F 30 in ESE 2.4 mph 5 mph 56.3% 0 in
02:54 76.3 °F 57.2 °F 30 in ESE 2.4 mph 5 mph 51.8% 0 in
02:59 76.5 °F 57 °F 30 in ESE 2.4 mph 5 mph 51.3% 0 in
03:04 76.6 °F 58.5 °F 30 in ESE 2.3 mph 4.3 mph 53.5% 0 in
03:09 77 °F 60.6 °F 30 in Sur 2 mph 5.2 mph 57.1% 0 in
03:14 77.2 °F 62.1 °F 30 in Sur 2.2 mph 5 mph 59.6% 0 in
03:19 77.2 °F 62.6 °F 30 in SSE 3.1 mph 5.2 mph 60.7% 0 in
03:24 77.4 °F 63.1 °F 30 in SSE 2.9 mph 5 mph 61.5% 0 in
03:29 77.4 °F 62.4 °F 30 in SSE 2.4 mph 5 mph 60.1% 0 in
03:34 77.4 °F 62.2 °F 30 in SSE 2.4 mph 4.7 mph 59.5% 0 in
03:39 77.5 °F 62.1 °F 30 in SE 2.4 mph 5 mph 59% 0 in
03:44 77.5 °F 61.5 °F 30 in SE 2.3 mph 3.6 mph 57.9% 0 in
03:49 77.4 °F 60.6 °F 30 in SSE 1.8 mph 4.7 mph 56.4% 0 in
03:54 77.4 °F 60.4 °F 30 in Sur 2.1 mph 5 mph 55.9% 0 in
03:59 77.4 °F 60.6 °F 30 in Sur 3.1 mph 5 mph 56.3% 0 in
04:04 77.5 °F 61.7 °F 30 in SSO 3 mph 5 mph 58.2% 0 in
04:09 77.5 °F 61.9 °F 30 in SSO 2.4 mph 5 mph 58.4% 0 in
04:14 77.7 °F 62.1 °F 30 in SSO 2.2 mph 2.4 mph 58.8% 0 in
04:19 77.7 °F 62.1 °F 30 in SSO 1.4 mph 2.4 mph 58.7% 0 in
04:24 77.7 °F 61.7 °F 30 in SSO 1.4 mph 2.3 mph 57.8% 0 in
04:29 77.5 °F 61.5 °F 30 in SO 1.4 mph 3.5 mph 57.7% 0 in
04:34 77.4 °F 61.5 °F 30 in ONO 1.4 mph 3 mph 58% 0 in
04:39 77.2 °F 61.3 °F 30 in ONO 1.4 mph 2 mph 58% 0 in
04:44 77.2 °F 61.3 °F 30 in NO 1.2 mph 1 mph 58.4% 0 in
04:49 76.8 °F 60.8 °F 30 in Calm   2.3 mph 57.9% 0 in
04:54 76.8 °F 61 °F 30 in Calm   3.6 mph 58% 0 in
04:59 76.8 °F 61.7 °F 30 in Calm   4 mph 59.8% 0 in
05:04 76.8 °F 61.9 °F 30 in ONO 0.4 mph 4 mph 60% 0 in
05:09 76.8 °F 62.2 °F 30 in Oeste 1.8 mph 3.5 mph 61% 0 in
05:14 76.8 °F 62.2 °F 30 in SSO 1.8 mph 4.6 mph 61% 0 in
05:19 76.8 °F 61.9 °F 30 in Sur 1.8 mph 5 mph 60.1% 0 in
05:24 76.8 °F 62.1 °F 30 in SSO 1.8 mph 3 mph 60.3% 0 in
05:29 76.8 °F 62.2 °F 30 in Oeste 1.8 mph 3 mph 61% 0 in
05:34 76.6 °F 62.1 °F 30 in Oeste 1.7 mph 3 mph 60.8% 0 in
05:39 76.5 °F 61.5 °F 30 in Sur 1.4 mph 4.6 mph 60% 0 in
05:44 76.5 °F 61.2 °F 30 in SSE 1.5 mph 5 mph 59.4% 0 in
05:49 76.5 °F 61 °F 30 in SSE 2 mph 5.2 mph 58.6% 0 in
05:54 76.5 °F 61 °F 30 in SE 2.1 mph 5 mph 58.8% 0 in
05:59 76.3 °F 61 °F 30 in SSE 2.4 mph 5 mph 59% 0 in
06:04 76.1 °F 61.2 °F 30 in SSE 2.5 mph 5 mph 59.9% 0 in
06:09 76.1 °F 61.2 °F 30 in SSE 2.9 mph 5 mph 60% 0 in
06:14 76.1 °F 61.2 °F 30 in SE 2.7 mph 4 mph 60% 0 in
06:19 75.9 °F 61 °F 30 in NE 2 mph 3 mph 59.8% 0 in
06:24 75.7 °F 60.8 °F 30 in NE 2 mph 3.6 mph 60% 0 in
06:29 75.4 °F 61 °F 30 in ENE 1.8 mph 4 mph 60.8% 0 in
06:34 75 °F 60.8 °F 30 in Este 1.9 mph 4.6 mph 61.1% 0 in
06:39 74.8 °F 60.8 °F 30 in ESE 2.4 mph 5 mph 61.6% 0 in
06:44 74.8 °F 60.8 °F 30 in SE 2.4 mph 5 mph 61.9% 0 in
06:49 74.8 °F 61 °F 30 in ESE 2.4 mph 5 mph 62% 0 in
06:54 74.7 °F 61 °F 30 in NNO 1.9 mph 3 mph 62.6% 0 in
06:59 74.7 °F 61.2 °F 30 in Calm   2.3 mph 63% 0 in
07:04 74.7 °F 61.2 °F 30 in Calm   2.9 mph 63% 0 in
07:09 74.5 °F 60.6 °F 30 in Calm   3 mph 62.1% 0 in
07:14 74.7 °F 60.6 °F 30 in NNO 0.3 mph 3 mph 62% 0 in
07:19 74.7 °F 60.8 °F 30 in NNE 1.8 mph 4.6 mph 62% 0 in
07:24 74.7 °F 60.8 °F 30 in ESE 1.9 mph 5 mph 62% 0 in
07:29 74.7 °F 60.8 °F 30 in SSE 2.4 mph 5 mph 62% 0 in
07:34 74.7 °F 60.8 °F 30 in SSE 2.4 mph 5 mph 62% 0 in
07:39 74.7 °F 60.8 °F 30 in SSE 2.4 mph 3 mph 62% 0 in
07:44 74.7 °F 60.8 °F 30 in SSE 2.2 mph 2.9 mph 62% 0 in
07:49 74.8 °F 60.8 °F 30 in SSE 1.4 mph 3 mph 62% 0 in
07:54 74.8 °F 61.2 °F 30 in SSE 1.4 mph 3 mph 62.5% 0 in
07:59 75 °F 61.2 °F 30 in SSE 1.4 mph 1.4 mph 62.3% 0 in
08:04 75 °F 61 °F 30 in SSE 1.4 mph 3.6 mph 61.8% 0 in
08:09 75.2 °F 60.8 °F 30 in SSE 1.4 mph 5.9 mph 61% 0 in
08:14 75.4 °F 60.6 °F 30 in SSE 1.7 mph 6 mph 60.2% 0 in
08:19 75.6 °F 60.6 °F 30 in SSE 3.1 mph 6.2 mph 60% 0 in
08:24 75.7 °F 60.6 °F 30 in SSE 3.4 mph 6.9 mph 59.4% 0 in
08:29 75.7 °F 60.6 °F 30 in SE 4.3 mph 8.1 mph 59.2% 0 in
08:34 75.7 °F 60.8 °F 30 in SE 4.5 mph 8 mph 60% 0 in
08:39 75.4 °F 60.6 °F 30 in SE 5.2 mph 7.4 mph 60% 0 in
08:44 75.4 °F 60.4 °F 30 in SSE 5.2 mph 9.7 mph 60% 0 in
08:49 75.4 °F 60.3 °F 30 in SSE 5.4 mph 10 mph 59.4% 0 in
08:54 75.6 °F 60.1 °F 30 in Sur 5.4 mph 8.5 mph 58.9% 0 in
08:59 75.7 °F 59.9 °F 30 in SSE 5.2 mph 9 mph 58.1% 0 in
09:04 76.3 °F 60.1 °F 30 in SSE 5.1 mph 7 mph 57.4% 0 in
09:09 76.5 °F 59.9 °F 30 in Sur 4.7 mph 7 mph 56.3% 0 in
09:14 76.6 °F 59.5 °F 30 in Sur 4.6 mph 6 mph 55.4% 0 in
09:19 76.6 °F 59.4 °F 30 in Sur 4 mph 6 mph 55% 0 in
09:24 77 °F 59.5 °F 30 in SSO 3.7 mph 5 mph 55% 0 in
09:29 77.4 °F 59.9 °F 30 in SSO 2.4 mph 5 mph 54.7% 0 in
09:34 77.9 °F 59.9 °F 30 in OSO 2.4 mph 5 mph 54% 0 in
09:39 78.1 °F 60.1 °F 30 in SSO 2.4 mph 5 mph 54% 0 in
09:44 78.3 °F 60.3 °F 30 in SSO 2.4 mph 5 mph 54% 0 in
09:49 78.4 °F 60.1 °F 30 in OSO 2.4 mph 5 mph 53.4% 0 in
09:54 78.4 °F 59.9 °F 30 in Oeste 2.3 mph 5 mph 53% 0 in
09:59 78.6 °F 60.3 °F 30 in OSO 2 mph 3.6 mph 53.3% 0 in
10:04 79.2 °F 60.4 °F 30 in SSO 1.9 mph 4.7 mph 52.8% 0 in
10:09 79.7 °F 60.6 °F 30 in SSE 1.4 mph 5.2 mph 52% 0 in
10:14 80.2 °F 60.6 °F 30 in SSE 1.7 mph 5 mph 51.1% 0 in
10:19 80.8 °F 60.3 °F 30 in SSO 2.9 mph 5 mph 50% 0 in
10:24 81.3 °F 60.3 °F 30 in SSO 2.6 mph 3 mph 49% 0 in
10:29 82.2 °F 60.6 °F 30 in Sur 1.4 mph 2.4 mph 48.2% 0 in
10:34 83.3 °F 60.4 °F 30 in SO 1.4 mph 4 mph 45.9% 0 in
10:39 83.8 °F 59.7 °F 30 in Oeste 1.4 mph 5 mph 44.2% 0 in
10:44 84.4 °F 59.7 °F 30 in ONO 1.5 mph 5 mph 43.6% 0 in
10:49 84.7 °F 59.7 °F 30 in NO 1.8 mph 5 mph 42.8% 0 in
10:54 85.5 °F 59.2 °F 30 in North 1.9 mph 5 mph 41.2% 0 in
10:59 85.8 °F 59 °F 30 in ENE 2 mph 5 mph 40.5% 0 in
11:04 86.4 °F 58.5 °F 30 in NNO 2 mph 5 mph 39.1% 0 in
11:09 86.5 °F 58.6 °F 30 in NO 2 mph 5.8 mph 38.8% 0 in
11:14 86.5 °F 58.6 °F 30 in North 2.2 mph 6 mph 38.9% 0 in
11:19 86.5 °F 58.6 °F 30 in North 2.9 mph 6 mph 39% 0 in
11:24 87.1 °F 58.1 °F 30 in NNE 2.9 mph 5.8 mph 37.6% 0 in
11:29 87.3 °F 57.7 °F 30 in North 2.9 mph 6 mph 36.9% 0 in
11:34 87.4 °F 57.9 °F 30 in North 3 mph 6.4 mph 37.1% 0 in
11:39 87.4 °F 55.9 °F 30 in NNE 3.6 mph 7.4 mph 34.3% 0 in
11:44 87.8 °F 56.7 °F 30 in NNE 3.8 mph 8 mph 35% 0 in
11:49 88.3 °F 56.7 °F 30 in NNE 4.7 mph 8 mph 34.4% 0 in
11:54 89.1 °F 56.3 °F 30 in NNE 4.6 mph 8.5 mph 33.1% 0 in
11:59 89.2 °F 56.5 °F 30 in NNE 4.3 mph 9 mph 33% 0 in
12:04 89.4 °F 56.5 °F 30 in NNE 4.5 mph 9.7 mph 33% 0 in
12:09 89.6 °F 56.7 °F 30 in NNE 5.4 mph 10 mph 33% 0 in
12:14 90.1 °F 56.8 °F 30 in NNE 5.4 mph 9.2 mph 32.7% 0 in
12:19 90.7 °F 57.6 °F 30 in North 5.4 mph 10.4 mph 32.9% 0 in
12:24 91 °F 57.7 °F 30 in NNE 5.5 mph 10.4 mph 32.7% 0 in
12:29 91.6 °F 58.1 °F 29.9 in NNE 5.9 mph 12.5 mph 32.7% 0 in
12:34 91.8 °F 57.7 °F 29.9 in NNE 5.8 mph 13 mph 32% 0 in
12:39 91.9 °F 57.9 °F 29.9 in NNE 5.4 mph 13 mph 32% 0 in
12:44 92.1 °F 57 °F 29.9 in NE 5.7 mph 10.7 mph 30.9% 0 in
12:49 92.5 °F 56.8 °F 29.9 in NE 6.9 mph 11 mph 30.3% 0 in
12:54 92.8 °F 56.8 °F 29.9 in North 6.5 mph 10.4 mph 30% 0 in
12:59 93.6 °F 56.8 °F 29.9 in NNE 4.7 mph 11.5 mph 29.3% 0 in
13:04 93.7 °F 56.8 °F 29.9 in NNE 5 mph 13.8 mph 29.1% 0 in
13:09 93.7 °F 56.7 °F 29.9 in NNE 6.4 mph 14 mph 28.9% 0 in
13:14 93.9 °F 56.5 °F 29.9 in NNE 6.5 mph 14 mph 28.7% 0 in
13:19 94.3 °F 55.9 °F 29.9 in NNE 6.9 mph 14 mph 27.8% 0 in
13:24 94.3 °F 56.5 °F 29.9 in North 7.3 mph 15.2 mph 28.3% 0 in
13:29 94.3 °F 57.6 °F 29.9 in NNE 9.2 mph 17.3 mph 29.4% 0 in
13:34 94.5 °F 59 °F 29.9 in NNE 9.2 mph 15.2 mph 30.7% 0 in
13:39 94.3 °F 59.5 °F 29.9 in NNE 9.2 mph 15 mph 31.7% 0 in
13:44 93.9 °F 59.5 °F 29.9 in NNE 9.3 mph 15.6 mph 32% 0 in
13:49 93.9 °F 59.5 °F 29.9 in NNE 10 mph 16.8 mph 32% 0 in
13:54 93.9 °F 58.8 °F 29.9 in NNE 10 mph 17.3 mph 31.1% 0 in
13:59 94.1 °F 57.9 °F 29.9 in NNE 10 mph 17 mph 30% 0 in
14:04 94.5 °F 57.4 °F 29.9 in NNE 10.1 mph 18.1 mph 29.2% 0 in
14:09 94.3 °F 57 °F 29.9 in NNE 10.7 mph 19 mph 29% 0 in
14:14 94.6 °F 56.7 °F 29.9 in NE 10.7 mph 19 mph 28.2% 0 in
14:19 94.5 °F 56.3 °F 29.9 in NNE 10.7 mph 18.4 mph 27.9% 0 in
14:24 94.5 °F 56.3 °F 29.9 in NNE 10.9 mph 17.3 mph 28% 0 in
14:29 94.6 °F 56.5 °F 29.9 in NNE 11.8 mph 17 mph 28% 0 in
14:34 94.8 °F 57.2 °F 29.9 in NNE 11.6 mph 19.2 mph 28.6% 0 in
14:39 95.2 °F 57 °F 29.9 in NE 10.7 mph 19.6 mph 28.1% 0 in
14:44 95.4 °F 57 °F 29.9 in NNE 10.9 mph 20.8 mph 28% 0 in
14:49 95.4 °F 57 °F 29.9 in NE 11.8 mph 21 mph 27.8% 0 in
14:54 95.4 °F 56.1 °F 29.9 in NE 11.6 mph 20.1 mph 27.1% 0 in
14:59 95.4 °F 57 °F 29.9 in NNE 10.7 mph 21 mph 28% 0 in
15:04 95.5 °F 57 °F 29.9 in NNE 10.6 mph 19.2 mph 27.7% 0 in
15:09 95.5 °F 56.8 °F 29.9 in NNE 10.2 mph 20.7 mph 27.7% 0 in
15:14 95.4 °F 55.9 °F 29.9 in NE 10.6 mph 21 mph 27% 0 in
15:19 95.4 °F 56.1 °F 29.9 in NE 12.3 mph 20.8 mph 27% 0 in
15:24 95.4 °F 56.3 °F 29.9 in NNE 12.1 mph 21 mph 27.2% 0 in
15:29 95.5 °F 55.9 °F 29.9 in NNE 11.4 mph 19.7 mph 26.6% 0 in
15:34 96.3 °F 56.3 °F 29.9 in NNE 11.2 mph 20 mph 26.6% 0 in
15:39 96.3 °F 57.4 °F 29.9 in NE 10.7 mph 21.3 mph 27.5% 0 in
15:44 96.4 °F 55.9 °F 29.9 in NE 10.9 mph 23.5 mph 26% 0 in
15:49 96.3 °F 55.8 °F 29.9 in NNE 11.8 mph 23 mph 26% 0 in
15:54 96.3 °F 56.1 °F 29.9 in NE 11.9 mph 21 mph 26.3% 0 in
15:59 96.4 °F 55.9 °F 29.9 in NNE 12.3 mph 21 mph 26% 0 in
16:04 96.3 °F 56.8 °F 29.9 in NE 12.3 mph 24.6 mph 27% 0 in
16:09 96.3 °F 56.7 °F 29.9 in NE 12.3 mph 25 mph 26.9% 0 in
16:14 96.4 °F 57 °F 29.9 in NE 12.4 mph 26.5 mph 27% 0 in
16:19 96.4 °F 57.7 °F 29.9 in NE 13 mph 26.5 mph 27.6% 0 in
16:24 96.6 °F 57.7 °F 29.9 in NNE 12.7 mph 24.2 mph 27.6% 0 in
16:29 96.4 °F 57.9 °F 29.9 in NE 11.4 mph 24 mph 28% 0 in
16:34 96.4 °F 58.6 °F 29.9 in NE 10.9 mph 20 mph 28.6% 0 in
16:39 96.4 °F 58.1 °F 29.9 in NE 8.7 mph 15.6 mph 28% 0 in
16:44 96.4 °F 57.9 °F 29.9 in ENE 8.7 mph 16 mph 27.9% 0 in
16:49 96.4 °F 58.1 °F 29.9 in ENE 8.7 mph 15 mph 28% 0 in
16:54 96.6 °F 58.1 °F 29.9 in NE 8.4 mph 15 mph 27.9% 0 in
16:59 97 °F 58.5 °F 29.9 in ENE 6.9 mph 17.3 mph 28% 0 in
17:04 96.6 °F 57.7 °F 29.9 in NNE 7.2 mph 17.5 mph 27.5% 0 in
17:09 96.4 °F 57.9 °F 29.9 in NE 8.5 mph 17.5 mph 27.9% 0 in
17:14 96.4 °F 57.9 °F 29.9 in ENE 8.5 mph 17 mph 27.9% 0 in
17:19 96.6 °F 57.6 °F 29.9 in NE 8.5 mph 15 mph 27.5% 0 in
17:24 96.4 °F 57 °F 29.9 in NE 8.5 mph 16.3 mph 27% 0 in
17:29 96.4 °F 56.1 °F 29.9 in NE 8.5 mph 16.1 mph 26.2% 0 in
17:34 96.4 °F 56.5 °F 29.9 in NE 8.3 mph 15 mph 26.5% 0 in
17:39 96.4 °F 55.9 °F 29.9 in NE 7.6 mph 16.3 mph 26% 0 in
17:44 96.3 °F 55.9 °F 29.9 in NE 7.8 mph 16 mph 26.1% 0 in
17:49 96.3 °F 56.3 °F 29.9 in ENE 8.5 mph 18.4 mph 26.5% 0 in
17:54 96.3 °F 56.8 °F 29.9 in NE 8.3 mph 18 mph 27% 0 in
17:59 96.3 °F 56.7 °F 29.9 in NE 7.6 mph 17.3 mph 26.9% 0 in
18:04 95.9 °F 56.5 °F 29.9 in NE 7.7 mph 17 mph 27% 0 in
18:09 96.3 °F 56.7 °F 29.9 in NE 8.1 mph 14 mph 27% 0 in
18:14 96.3 °F 55.9 °F 29.9 in ENE 8 mph 14.7 mph 26.2% 0 in
18:19 96.3 °F 55.8 °F 29.9 in NE 7.6 mph 16.1 mph 26% 0 in
18:24 96.3 °F 55.8 °F 29.9 in NE 7.4 mph 16 mph 26% 0 in
18:29 96.4 °F 55.9 °F 29.9 in NE 6.4 mph 12 mph 26% 0 in
18:34 96.3 °F 54.1 °F 29.9 in NNE 6.5 mph 23 mph 24.5% 0 in
18:39 96.3 °F 54.5 °F 29.9 in NE 6.9 mph 16.3 mph 24.8% 0 in
18:44 95.4 °F 56.7 °F 29.9 in NNE 7.2 mph 16.1 mph 27.5% 0 in
18:49 94.8 °F 57.4 °F 29.9 in NNE 8.5 mph 16.1 mph 28.8% 0 in
18:54 94.3 °F 58.3 °F 29.9 in NNE 8.8 mph 16.1 mph 30.1% 0 in
18:59 93.7 °F 58.8 °F 29.9 in NNE 10 mph 16.1 mph 31.2% 0 in
19:04 93.6 °F 59.2 °F 29.9 in NNE 10 mph 17.3 mph 32% 0 in
19:09 93.4 °F 59.5 °F 29.9 in NNE 10 mph 17 mph 32.5% 0 in
19:14 93.4 °F 59.5 °F 29.9 in NNE 9.8 mph 16.1 mph 32.5% 0 in
19:19 92.8 °F 58.8 °F 29.9 in NNE 8.7 mph 16 mph 32.2% 0 in
19:24 92.7 °F 59 °F 29.9 in NNE 9.1 mph 17.3 mph 32.7% 0 in
19:29 92.3 °F 59.4 °F 29.9 in NNE 10.7 mph 17 mph 33.3% 0 in
19:34 91.9 °F 58.6 °F 29.9 in NE 10.7 mph 17.5 mph 32.9% 0 in
19:39 91.9 °F 58.5 °F 29.9 in NE 11.2 mph 18.4 mph 32.8% 0 in
19:44 91.8 °F 58.1 °F 29.8 in NNE 11.1 mph 17.3 mph 32.5% 0 in
19:49 91.8 °F 58.1 °F 29.8 in NNE 10.2 mph 18.4 mph 32.4% 0 in
19:54 91.6 °F 58.3 °F 29.8 in NE 10 mph 18 mph 33% 0 in
19:59 91.2 °F 58.6 °F 29.8 in NNE 9.2 mph 16.3 mph 33.6% 0 in
20:04 90.9 °F 59.5 °F 29.8 in NNE 9.3 mph 16.1 mph 35.2% 0 in
20:09 90.5 °F 59.7 °F 29.9 in NNE 9.7 mph 16 mph 35.8% 0 in
20:14 90.1 °F 59.4 °F 29.9 in NNE 9.5 mph 13.8 mph 35.6% 0 in
20:19 90 °F 59.9 °F 29.9 in NNE 8.7 mph 14 mph 36.7% 0 in
20:24 89.6 °F 61.3 °F 29.9 in NNE 8.9 mph 16.1 mph 38.9% 0 in
20:29 89.2 °F 62.6 °F 29.9 in NNE 9.7 mph 16.1 mph 41.2% 0 in
20:34 88.7 °F 63.1 °F 29.9 in NE 9.6 mph 16 mph 42.7% 0 in
20:39 88.2 °F 63.7 °F 29.9 in NNE 9.2 mph 14 mph 44.1% 0 in
20:44 87.8 °F 64 °F 29.9 in NNE 8.9 mph 13.8 mph 45.5% 0 in
20:49 87.4 °F 64.4 °F 29.9 in NE 8.1 mph 14 mph 46.4% 0 in
20:54 87.4 °F 64.9 °F 29.9 in NE 8 mph 13.8 mph 47.6% 0 in
20:59 86.9 °F 65.1 °F 29.9 in NNE 7.4 mph 14 mph 48.5% 0 in
21:04 86.5 °F 65.3 °F 29.9 in NNE 7.3 mph 13 mph 49.2% 0 in
21:09 86.4 °F 66 °F 29.9 in NNE 6.9 mph 10 mph 51% 0 in
21:14 85.6 °F 66.4 °F 29.9 in NNE 6.8 mph 10.4 mph 52.4% 0 in
21:19 85.3 °F 66.2 °F 29.9 in North 6.4 mph 10 mph 53% 0 in
21:24 84.7 °F 65.7 °F 29.9 in NNE 6.3 mph 10.7 mph 53% 0 in
21:29 84.2 °F 65.7 °F 29.9 in NNE 6.2 mph 11 mph 53.5% 0 in
21:34 83.8 °F 65.5 °F 29.9 in NNE 6.2 mph 11.5 mph 54.1% 0 in
21:39 83.7 °F 65.7 °F 29.9 in NNE 6.4 mph 12 mph 55% 0 in
21:44 83.3 °F 65.5 °F 29.9 in NNE 6.5 mph 12.7 mph 55% 0 in
21:49 82.9 °F 65.7 °F 29.9 in NNE 6.9 mph 13.8 mph 55.8% 0 in
21:54 82.8 °F 65.7 °F 29.9 in NNE 7 mph 14 mph 56.2% 0 in
21:59 82.6 °F 65.8 °F 29.9 in NNE 7.6 mph 14 mph 57% 0 in
22:04 82.6 °F 65.8 °F 29.9 in NNE 7.5 mph 12 mph 57% 0 in
22:09 82.4 °F 65.5 °F 29.9 in NNE 6.9 mph 10.4 mph 57% 0 in
22:14 82 °F 65.5 °F 29.9 in NNE 6.6 mph 10 mph 57% 0 in
22:19 82 °F 65.7 °F 29.9 in NNE 5.4 mph 10.4 mph 57.8% 0 in
22:24 81.9 °F 66.2 °F 29.9 in NNE 5.5 mph 10 mph 59.2% 0 in
22:29 81.7 °F 66.7 °F 29.9 in NNE 5.9 mph 10.4 mph 60.6% 0 in
22:34 81.3 °F 67.1 °F 29.9 in NNE 6 mph 11.5 mph 61.8% 0 in
22:39 81.3 °F 67.3 °F 29.9 in NNE 6.4 mph 12 mph 62.3% 0 in
22:44 81.1 °F 67.3 °F 29.9 in NE 6.3 mph 11.8 mph 63% 0 in
22:49 81.1 °F 68 °F 29.9 in NNE 5.9 mph 12.7 mph 64.4% 0 in
22:54 81 °F 68.4 °F 29.9 in NNE 6.2 mph 13 mph 65.8% 0 in
22:59 81 °F 68.9 °F 29.9 in NNE 7.6 mph 12 mph 67.1% 0 in
23:04 80.6 °F 69.4 °F 29.9 in NNE 7.6 mph 12 mph 68.7% 0 in
23:09 80.4 °F 69.6 °F 29.9 in NNE 7.4 mph 12 mph 70% 0 in
23:14 80.4 °F 70.2 °F 29.9 in NNE 7.4 mph 12.7 mph 70.9% 0 in
23:19 80.2 °F 70.3 °F 29.9 in NNE 7.4 mph 13 mph 71.7% 0 in
23:24 80.1 °F 70.7 °F 29.9 in NE 7.6 mph 13 mph 73.3% 0 in
23:29 79.9 °F 70.9 °F 29.9 in NNE 8.1 mph 13 mph 74% 0 in
23:34 79.7 °F 70.9 °F 29.9 in NE 8 mph 12 mph 74.3% 0 in
23:39 79.5 °F 70.9 °F 29.9 in NE 7.6 mph 12 mph 75% 0 in
23:44 79.5 °F 70.9 °F 29.9 in NNE 7.6 mph 11 mph 75% 0 in
23:49 79.5 °F 70.9 °F 29.9 in NNE 7.4 mph 9.2 mph 75% 0 in
23:54 79.3 °F 70.7 °F 29.9 in NE 7.1 mph 9.7 mph 75% 0 in
23:59 79.2 °F 70.9 °F 29.9 in NNE 6.2 mph 10 mph 75.9% 0 in
Murcia-Puente Tocinos, España
Compliments of Weather Underground - 3 mb

La estación de MeteoMurcia.com, publica sus datos en los siguientes proyectos:

Weather Underground PWS IMURCIAP2 Meteoclimatic www.awekas.at

W3Counter
Web Analytics